createdAt,value
2022-11-01T00:01:55.857Z,98341.47
2022-11-01T00:04:00.899Z,98341.53
2022-11-01T00:06:06.067Z,98335.56
2022-11-01T00:08:13.136Z,98327.91
2022-11-01T00:10:18.180Z,98323.56
2022-11-01T00:12:22.933Z,98333.97
2022-11-01T00:14:27.676Z,98331.25
2022-11-01T00:16:32.484Z,98327.91
2022-11-01T00:18:37.251Z,98325.19
2022-11-01T00:20:43.019Z,98323.56
2022-11-01T00:22:47.804Z,98327.91
2022-11-01T00:24:55.576Z,98327.91
2022-11-01T00:27:00.699Z,98338.25
2022-11-01T00:29:05.288Z,98338.59
2022-11-01T00:31:12.625Z,98348.69
2022-11-01T00:33:17.676Z,98355.28
2022-11-01T00:35:22.705Z,98344.28
2022-11-01T00:37:27.444Z,98353.91
2022-11-01T00:39:32.224Z,98351.19
2022-11-01T00:41:39.562Z,98349.50
2022-11-01T00:43:44.551Z,98347.13
2022-11-01T00:45:49.314Z,98339.44
2022-11-01T00:47:54.110Z,98331.75
2022-11-01T00:49:58.886Z,98351.97
2022-11-01T00:52:03.762Z,98343.22
2022-11-01T00:54:08.795Z,98346.81
2022-11-01T00:56:13.625Z,98350.22
2022-11-01T00:58:21.658Z,98356.13
2022-11-01T01:00:26.529Z,98359.44
2022-11-01T01:02:31.309Z,98346.22
2022-11-01T01:04:41.570Z,98342.66
2022-11-01T01:06:46.446Z,98350.34
2022-11-01T01:08:51.342Z,98359.72
2022-11-01T01:10:56.536Z,98361.38
2022-11-01T01:13:01.355Z,98358.69
2022-11-01T01:15:10.974Z,98348.06
2022-11-01T01:17:15.756Z,98348.06
2022-11-01T01:19:20.538Z,98355.97
2022-11-01T01:21:26.605Z,98350.91
2022-11-01T01:23:31.381Z,98363.25
2022-11-01T01:25:36.262Z,98354.66
2022-11-01T01:27:41.786Z,98352.97
2022-11-01T01:29:47.295Z,98352.97
2022-11-01T01:31:55.341Z,98358.19
2022-11-01T01:34:00.344Z,98354.75
2022-11-01T01:36:05.756Z,98358.19
2022-11-01T01:38:10.786Z,98359.19
2022-11-01T01:40:15.597Z,98367.88
2022-11-01T01:42:25.315Z,98356.59
2022-11-01T01:44:59.839Z,98353.03
2022-11-01T01:47:07.289Z,98360.97
2022-11-01T01:49:12.109Z,98343.66
2022-11-01T01:51:20.299Z,98341.16
2022-11-01T01:53:29.341Z,98335.22
2022-11-01T01:55:39.523Z,98325.75
2022-11-01T01:57:45.451Z,98344.97
2022-11-01T01:59:50.786Z,98359.50
2022-11-01T02:01:55.678Z,98341.16
2022-11-01T02:04:03.258Z,98351.50
2022-11-01T02:06:13.251Z,98353.28
2022-11-01T02:08:26.686Z,98349.75
2022-11-01T02:10:32.855Z,98353.97
2022-11-01T02:12:39.395Z,98345.28
2022-11-01T02:14:46.833Z,98341.56
2022-11-01T02:16:57.993Z,98337.97
2022-11-01T02:19:27.471Z,98324.81
2022-11-01T02:21:55.367Z,98328.22
2022-11-01T02:24:32.520Z,98324.81
2022-11-01T02:26:51.800Z,98333.66
2022-11-01T02:29:14.133Z,98326.53
2022-11-01T02:31:43.144Z,98331.72
2022-11-01T02:33:57.299Z,98333.44
2022-11-01T02:36:07.938Z,98336.06
2022-11-01T02:38:18.233Z,98336.94
2022-11-01T02:40:29.601Z,98350.97
2022-11-01T02:42:38.471Z,98348.28
2022-11-01T02:44:49.153Z,98344.78
2022-11-01T02:47:05.989Z,98343.91
2022-11-01T02:49:17.595Z,98345.63
2022-11-01T02:51:25.897Z,98347.38
2022-11-01T02:53:30.703Z,98344.84
2022-11-01T02:55:36.705Z,98340.59
2022-11-01T02:57:43.781Z,98341.75
2022-11-01T02:59:50.926Z,98340.06
2022-11-01T03:02:03.129Z,98342.56
2022-11-01T03:04:08.137Z,98336.66
2022-11-01T03:06:23.767Z,98344.50
2022-11-01T03:08:36.037Z,98336.75
2022-11-01T03:10:50.561Z,98345.66
2022-11-01T03:13:04.160Z,98357.84
2022-11-01T03:15:21.164Z,98352.75
2022-11-01T03:17:35.226Z,98363.22
2022-11-01T03:19:47.226Z,98360.59
2022-11-01T03:22:01.894Z,98363.22
2022-11-01T03:24:15.494Z,98357.28
2022-11-01T03:26:27.658Z,98361.75
2022-11-01T03:28:38.380Z,98360.97
2022-11-01T03:30:45.731Z,98369.75
2022-11-01T03:32:54.104Z,98366.25
2022-11-01T03:35:02.350Z,98363.75
2022-11-01T03:37:13.423Z,98361.97
2022-11-01T03:39:22.869Z,98349.75
2022-11-01T03:41:30.506Z,98353.28
2022-11-01T03:43:38.162Z,98362.81
2022-11-01T03:45:44.333Z,98366.25
2022-11-01T03:47:49.103Z,98367.19
2022-11-01T03:50:17.982Z,98364.53
2022-11-01T03:52:27.289Z,98370.50
2022-11-01T03:54:32.103Z,98372.06
2022-11-01T03:56:36.862Z,98371.06
2022-11-01T03:58:46.106Z,98374.41
2022-11-01T04:00:50.961Z,98379.56
2022-11-01T04:02:57.491Z,98382.41
2022-11-01T04:05:02.241Z,98378.97
2022-11-01T04:07:07.019Z,98375.50
2022-11-01T04:09:14.557Z,98379.06
2022-11-01T04:11:19.281Z,98390.34
2022-11-01T04:13:25.408Z,98398.94
2022-11-01T04:15:43.568Z,98392.66
2022-11-01T04:18:00.748Z,98388.19
2022-11-01T04:20:17.983Z,98381.88
2022-11-01T04:22:24.565Z,98385.28
2022-11-01T04:24:32.171Z,98383.50
2022-11-01T04:26:37.517Z,98382.56
2022-11-01T04:28:45.001Z,98386.00
2022-11-01T04:30:49.711Z,98380.78
2022-11-01T04:32:54.529Z,98383.25
2022-11-01T04:34:59.380Z,98383.34
2022-11-01T04:37:04.162Z,98387.72
2022-11-01T04:39:09.016Z,98398.19
2022-11-01T04:41:16.488Z,98397.25
2022-11-01T04:43:22.890Z,98405.09
2022-11-01T04:45:28.407Z,98394.56
2022-11-01T04:47:33.415Z,98398.03
2022-11-01T04:49:38.201Z,98398.94
2022-11-01T04:51:42.985Z,98403.25
2022-11-01T04:53:47.876Z,98404.25
2022-11-01T04:55:52.994Z,98411.16
2022-11-01T04:58:00.344Z,98413.09
2022-11-01T05:00:05.190Z,98420.88
2022-11-01T05:02:10.094Z,98410.31
2022-11-01T05:04:14.998Z,98425.00
2022-11-01T05:06:20.301Z,98423.94
2022-11-01T05:08:24.781Z,98419.59
2022-11-01T05:10:29.552Z,98421.97
2022-11-01T05:12:34.325Z,98427.19
2022-11-01T05:14:41.716Z,98417.41
2022-11-01T05:16:46.400Z,98418.34
2022-11-01T05:18:51.573Z,98416.50
2022-11-01T05:20:56.457Z,98421.59
2022-11-01T05:23:02.560Z,98421.50
2022-11-01T05:25:11.550Z,98428.44
2022-11-01T05:27:16.373Z,98437.94
2022-11-01T05:29:31.349Z,98441.34
2022-11-01T05:31:40.139Z,98435.13
2022-11-01T05:33:44.909Z,98436.69
2022-11-01T05:35:49.627Z,98447.09
2022-11-01T05:37:54.671Z,98447.16
2022-11-01T05:39:59.484Z,98447.94
2022-11-01T05:42:04.227Z,98447.94
2022-11-01T05:44:09.232Z,98448.78
2022-11-01T05:46:14.489Z,98453.94
2022-11-01T05:48:21.817Z,98446.09
2022-11-01T05:50:26.693Z,98449.56
2022-11-01T05:52:31.891Z,98453.78
2022-11-01T05:54:36.599Z,98459.09
2022-11-01T05:56:41.643Z,98454.84
2022-11-01T05:58:46.673Z,98475.03
2022-11-01T06:00:51.469Z,98469.88
2022-11-01T06:02:56.320Z,98483.72
2022-11-01T06:05:03.693Z,98489.00
2022-11-01T06:07:08.458Z,98500.41
2022-11-01T06:09:13.502Z,98493.50
2022-11-01T06:11:19.770Z,98492.72
2022-11-01T06:13:24.545Z,98483.09
2022-11-01T06:15:29.316Z,98492.81
2022-11-01T06:17:34.073Z,98503.41
2022-11-01T06:19:38.792Z,98505.94
2022-11-01T06:21:46.181Z,98498.88
2022-11-01T06:23:52.678Z,98493.50
2022-11-01T06:26:02.882Z,98498.72
2022-11-01T06:28:07.816Z,98501.50
2022-11-01T06:30:14.128Z,98504.28
2022-11-01T06:32:18.870Z,98499.88
2022-11-01T06:34:23.630Z,98493.81
2022-11-01T06:36:31.493Z,98494.88
2022-11-01T06:38:39.131Z,98502.56
2022-11-01T06:40:44.047Z,98504.28
2022-11-01T06:42:48.838Z,98513.78
2022-11-01T06:44:53.586Z,98522.47
2022-11-01T06:46:58.522Z,98518.97
2022-11-01T06:49:03.364Z,98528.41
2022-11-01T06:51:08.830Z,98523.16
2022-11-01T06:53:13.621Z,98526.72
2022-11-01T06:55:21.115Z,98536.88
2022-11-01T06:57:25.869Z,98539.34
2022-11-01T06:59:30.786Z,98537.50
2022-11-01T07:01:36.466Z,98536.50
2022-11-01T07:03:41.380Z,98541.63
2022-11-01T07:05:48.312Z,98547.50
2022-11-01T07:07:53.070Z,98554.19
2022-11-01T07:09:57.828Z,98558.44
2022-11-01T07:12:05.290Z,98553.72
2022-11-01T07:14:10.032Z,98550.88
2022-11-01T07:16:14.803Z,98543.88
2022-11-01T07:18:19.657Z,98544.50
2022-11-01T07:20:24.522Z,98543.56
2022-11-01T07:22:29.267Z,98539.16
2022-11-01T07:24:34.133Z,98530.41
2022-11-01T07:26:38.838Z,98542.94
2022-11-01T07:28:46.189Z,98545.72
2022-11-01T07:30:50.990Z,98552.66
2022-11-01T07:32:57.877Z,98558.81
2022-11-01T07:35:02.632Z,98561.25
2022-11-01T07:37:07.447Z,98562.72
2022-11-01T07:39:12.165Z,98565.97
2022-11-01T07:41:16.982Z,98566.78
2022-11-01T07:43:22.040Z,98569.34
2022-11-01T07:45:31.337Z,98575.19
2022-11-01T07:47:36.103Z,98589.97
2022-11-01T07:49:40.903Z,98589.88
2022-11-01T07:51:46.698Z,98595.91
2022-11-01T07:53:51.471Z,98614.06
2022-11-01T07:55:56.288Z,98616.53
2022-11-01T07:58:01.348Z,98618.31
2022-11-01T08:00:06.787Z,98616.31
2022-11-01T08:02:19.908Z,98606.28
2022-11-01T08:04:24.800Z,98602.41
2022-11-01T08:06:29.628Z,98609.78
2022-11-01T08:08:34.481Z,98609.44
2022-11-01T08:10:40.226Z,98600.41
2022-11-01T08:12:47.751Z,98600.84
2022-11-01T08:14:52.669Z,98593.38
2022-11-01T08:17:01.821Z,98593.16
2022-11-01T08:19:09.293Z,98583.28
2022-11-01T08:21:18.765Z,98582.09
2022-11-01T08:23:23.957Z,98585.91
2022-11-01T08:25:31.635Z,98581.06
2022-11-01T08:27:36.419Z,98584.97
2022-11-01T08:29:43.883Z,98577.59
2022-11-01T08:31:49.282Z,98583.34
2022-11-01T08:33:54.020Z,98585.63
2022-11-01T08:36:01.396Z,98599.31
2022-11-01T08:38:07.025Z,98596.69
2022-11-01T08:40:14.119Z,98601.03
2022-11-01T08:42:19.224Z,98610.81
2022-11-01T08:44:23.733Z,98609.50
2022-11-01T08:46:31.270Z,98608.81
2022-11-01T08:48:36.071Z,98599.00
2022-11-01T08:50:41.547Z,98598.81
2022-11-01T08:52:48.924Z,98597.88
2022-11-01T08:54:53.645Z,98591.44
2022-11-01T08:56:59.438Z,98593.22
2022-11-01T08:59:04.233Z,98605.81
2022-11-01T09:01:09.216Z,98600.41
2022-11-01T09:03:14.802Z,98605.56
2022-11-01T09:05:19.877Z,98589.66
2022-11-01T09:07:24.624Z,98581.28
2022-11-01T09:09:32.121Z,98584.66
2022-11-01T09:11:36.859Z,98575.50
2022-11-01T09:13:41.812Z,98565.31
2022-11-01T09:15:46.516Z,98586.63
2022-11-01T09:17:51.533Z,98596.94
2022-11-01T09:19:56.308Z,98591.25
2022-11-01T09:22:01.041Z,98597.56
2022-11-01T09:24:05.944Z,98593.53
2022-11-01T09:26:13.969Z,98584.06
2022-11-01T09:28:18.847Z,98587.06
2022-11-01T09:30:23.760Z,98587.41
2022-11-01T09:32:31.618Z,98585.19
2022-11-01T09:34:36.444Z,98582.84
2022-11-01T09:36:43.869Z,98590.06
2022-11-01T09:38:48.689Z,98585.09
2022-11-01T09:41:02.011Z,98578.94
2022-11-01T09:43:11.492Z,98579.31
2022-11-01T09:45:21.625Z,98585.00
2022-11-01T09:47:31.183Z,98588.00
2022-11-01T09:49:39.378Z,98591.28
2022-11-01T09:51:44.122Z,98594.66
2022-11-01T09:53:50.528Z,98606.97
2022-11-01T09:56:04.500Z,98605.19
2022-11-01T09:58:22.304Z,98606.13
2022-11-01T10:00:27.940Z,98606.34
2022-11-01T10:02:54.706Z,98614.03
2022-11-01T10:05:25.680Z,98616.25
2022-11-01T10:07:37.451Z,98628.81
2022-11-01T10:09:50.191Z,98625.41
2022-11-01T10:12:08.061Z,98631.00
2022-11-01T10:14:27.565Z,98628.13
2022-11-01T10:16:38.128Z,98634.97
2022-11-01T10:18:50.178Z,98631.09
2022-11-01T10:20:54.914Z,98629.09
2022-11-01T10:23:00.691Z,98629.63
2022-11-01T10:25:11.753Z,98622.38
2022-11-01T10:27:22.703Z,98629.25
2022-11-01T10:29:36.151Z,98620.09
2022-11-01T10:31:46.795Z,98620.91
2022-11-01T10:33:58.212Z,98618.16
2022-11-01T10:36:06.432Z,98607.63
2022-11-01T10:38:38.008Z,98612.59
2022-11-01T10:40:50.877Z,98607.34
2022-11-01T10:42:55.820Z,98614.50
2022-11-01T10:45:08.927Z,98610.38
2022-11-01T10:47:19.489Z,98613.44
2022-11-01T10:49:40.457Z,98604.41
2022-11-01T10:51:58.311Z,98610.94
2022-11-01T10:54:07.329Z,98603.03
2022-11-01T10:56:21.381Z,98599.34
2022-11-01T10:58:37.385Z,98602.50
2022-11-01T11:00:48.678Z,98603.03
2022-11-01T11:02:58.668Z,98600.28
2022-11-01T11:05:03.515Z,98600.59
2022-11-01T11:07:19.974Z,98598.19
2022-11-01T11:09:32.821Z,98589.94
2022-11-01T11:11:42.977Z,98583.53
2022-11-01T11:13:51.391Z,98580.56
2022-11-01T11:16:04.307Z,98585.75
2022-11-01T11:18:18.733Z,98575.28
2022-11-01T11:20:27.159Z,98580.38
2022-11-01T11:22:32.341Z,98573.91
2022-11-01T11:24:39.807Z,98579.41
2022-11-01T11:26:45.725Z,98583.63
2022-11-01T11:28:56.424Z,98582.34
2022-11-01T11:31:16.308Z,98578.97
2022-11-01T11:33:21.485Z,98575.69
2022-11-01T11:35:27.732Z,98568.53
2022-11-01T11:37:35.884Z,98573.69
2022-11-01T11:39:42.099Z,98574.63
2022-11-01T11:41:47.338Z,98575.81
2022-11-01T11:43:52.213Z,98575.81
2022-11-01T11:46:13.447Z,98571.72
2022-11-01T11:48:25.454Z,98578.34
2022-11-01T11:50:37.930Z,98573.28
2022-11-01T11:52:42.721Z,98568.97
2022-11-01T11:54:48.176Z,98567.63
2022-11-01T11:56:55.480Z,98576.34
2022-11-01T11:59:08.539Z,98555.25
2022-11-01T12:01:21.988Z,98571.06
2022-11-01T12:03:26.856Z,98566.22
2022-11-01T12:05:31.696Z,98570.97
2022-11-01T12:07:38.913Z,98564.31
2022-11-01T12:09:49.332Z,98567.69
2022-11-01T12:11:54.124Z,98565.19
2022-11-01T12:14:06.461Z,98556.50
2022-11-01T12:16:25.769Z,98556.72
2022-11-01T12:18:30.528Z,98552.06
2022-11-01T12:20:39.962Z,98555.03
2022-11-01T12:22:50.561Z,98547.56
2022-11-01T12:24:57.616Z,98564.66
2022-11-01T12:27:07.041Z,98556.09
2022-11-01T12:29:21.082Z,98561.78
2022-11-01T12:31:31.554Z,98566.13
2022-11-01T12:33:40.984Z,98574.44
2022-11-01T12:35:49.653Z,98567.63
2022-11-01T12:38:06.028Z,98560.13
2022-11-01T12:40:21.487Z,98571.50
2022-11-01T12:42:31.460Z,98590.16
2022-11-01T12:44:38.890Z,98581.69
2022-11-01T12:46:51.704Z,98588.00
2022-11-01T12:49:03.174Z,98590.31
2022-11-01T12:51:13.285Z,98595.91
2022-11-01T12:53:22.683Z,98580.66
2022-11-01T12:55:33.724Z,98585.16
2022-11-01T12:57:38.719Z,98592.44
2022-11-01T12:59:43.432Z,98590.09
2022-11-01T13:01:56.617Z,98596.41
2022-11-01T13:04:13.454Z,98592.53
2022-11-01T13:06:47.464Z,98594.91
2022-11-01T13:08:59.628Z,98594.88
2022-11-01T13:11:15.424Z,98594.44
2022-11-01T13:13:26.994Z,98594.03
2022-11-01T13:15:38.426Z,98587.25
2022-11-01T13:17:56.045Z,98582.94
2022-11-01T13:20:16.481Z,98578.94
2022-11-01T13:22:27.698Z,98586.44
2022-11-01T13:24:39.757Z,98583.91
2022-11-01T13:26:48.414Z,98583.38
2022-11-01T13:29:03.627Z,98579.50
2022-11-01T13:31:17.407Z,98572.97
2022-11-01T13:33:33.066Z,98573.28
2022-11-01T13:35:50.806Z,98588.25
2022-11-01T13:38:00.912Z,98576.75
2022-11-01T13:40:20.501Z,98582.25
2022-11-01T13:42:32.091Z,98580.88
2022-11-01T13:44:41.663Z,98583.38
2022-11-01T13:47:25.039Z,98576.97
2022-11-01T13:50:02.607Z,98584.03
2022-11-01T13:52:19.534Z,98573.59
2022-11-01T13:54:29.212Z,98586.25
2022-11-01T13:56:37.257Z,98585.47
2022-11-01T13:58:42.637Z,98595.56
2022-11-01T14:00:50.239Z,98593.97
2022-11-01T14:02:57.514Z,98594.06
2022-11-01T14:05:03.256Z,98594.81
2022-11-01T14:07:19.117Z,98594.41
2022-11-01T14:09:34.752Z,98593.44
2022-11-01T14:11:50.478Z,98601.19
2022-11-01T14:13:54.997Z,98601.91
2022-11-01T14:16:22.700Z,98600.88
2022-11-01T14:18:28.297Z,98604.34
2022-11-01T14:20:54.278Z,98600.44
2022-11-01T14:23:22.379Z,98598.66
2022-11-01T14:25:35.459Z,98598.19
2022-11-01T14:27:45.921Z,98605.81
2022-11-01T14:29:55.191Z,98605.41
2022-11-01T14:32:01.062Z,98598.88
2022-11-01T14:34:10.120Z,98602.34
2022-11-01T14:36:15.779Z,98608.66
2022-11-01T14:38:26.229Z,98615.59
2022-11-01T14:40:43.829Z,98614.78
2022-11-01T14:42:50.965Z,98615.59
2022-11-01T14:45:00.058Z,98619.75
2022-11-01T14:47:12.760Z,98614.28
2022-11-01T14:49:28.895Z,98613.09
2022-11-01T14:51:38.403Z,98615.31
2022-11-01T14:53:43.201Z,98628.69
2022-11-01T14:55:50.601Z,98618.78
2022-11-01T14:58:11.725Z,98621.09
2022-11-01T15:00:30.285Z,98624.97
2022-11-01T15:02:35.695Z,98626.69
2022-11-01T15:04:43.970Z,98619.41
2022-11-01T15:06:48.724Z,98621.50
2022-11-01T15:08:53.606Z,98625.75
2022-11-01T15:11:05.183Z,98623.03
2022-11-01T15:13:10.219Z,98626.81
2022-11-01T15:15:16.814Z,98633.78
2022-11-01T15:17:26.509Z,98636.53
2022-11-01T15:19:38.098Z,98629.69
2022-11-01T15:21:47.310Z,98633.72
2022-11-01T15:23:54.251Z,98639.94
2022-11-01T15:26:04.322Z,98636.94
2022-11-01T15:28:09.494Z,98632.97
2022-11-01T15:30:21.408Z,98641.16
2022-11-01T15:32:30.285Z,98652.53
2022-11-01T15:34:36.570Z,98658.63
2022-11-01T15:36:45.141Z,98657.53
2022-11-01T15:38:54.481Z,98657.88
2022-11-01T15:41:22.076Z,98656.19
2022-11-01T15:43:29.166Z,98655.44
2022-11-01T15:45:36.152Z,98665.38
2022-11-01T15:47:45.806Z,98676.91
2022-11-01T15:49:55.632Z,98675.31
2022-11-01T15:52:04.386Z,98672.69
2022-11-01T15:54:20.688Z,98673.91
2022-11-01T15:56:58.336Z,98673.44
2022-11-01T15:59:04.567Z,98678.94
2022-11-01T16:01:15.634Z,98681.94
2022-11-01T16:03:27.745Z,98681.88
2022-11-01T16:05:36.265Z,98688.88
2022-11-01T16:07:44.379Z,98684.94
2022-11-01T16:09:50.820Z,98692.34
2022-11-01T16:12:01.970Z,98692.59
2022-11-01T16:14:10.410Z,98702.34
2022-11-01T16:16:15.302Z,98700.00
2022-11-01T16:18:20.186Z,98701.84
2022-11-01T16:20:34.242Z,98701.84
2022-11-01T16:22:41.063Z,98696.78
2022-11-01T16:24:52.304Z,98707.34
2022-11-01T16:27:03.760Z,98705.00
2022-11-01T16:29:08.790Z,98708.66
2022-11-01T16:31:26.651Z,98713.06
2022-11-01T16:33:33.811Z,98724.66
2022-11-01T16:35:40.066Z,98720.53
2022-11-01T16:37:46.578Z,98724.94
2022-11-01T16:39:51.340Z,98722.56
2022-11-01T16:41:56.099Z,98727.06
2022-11-01T16:44:10.703Z,98728.09
2022-11-01T16:46:15.668Z,98737.06
2022-11-01T16:48:31.340Z,98746.13
2022-11-01T16:50:35.848Z,98752.84
2022-11-01T16:52:40.630Z,98761.56
2022-11-01T16:54:45.948Z,98761.06
2022-11-01T16:56:53.011Z,98772.63
2022-11-01T16:59:00.240Z,98759.94
2022-11-01T17:01:08.491Z,98772.53
2022-11-01T17:03:15.861Z,98773.78
2022-11-01T17:05:23.691Z,98772.28
2022-11-01T17:07:30.838Z,98776.97
2022-11-01T17:09:37.241Z,98783.31
2022-11-01T17:11:46.411Z,98782.53
2022-11-01T17:13:54.580Z,98783.47
2022-11-01T17:15:59.406Z,98784.47
2022-11-01T17:18:12.841Z,98781.84
2022-11-01T17:20:23.086Z,98776.59
2022-11-01T17:22:34.867Z,98779.22
2022-11-01T17:24:39.631Z,98783.53
2022-11-01T17:26:44.447Z,98781.53
2022-11-01T17:28:52.581Z,98784.94
2022-11-01T17:30:57.934Z,98783.84
2022-11-01T17:33:02.871Z,98785.50
2022-11-01T17:35:11.837Z,98783.66
2022-11-01T17:37:18.495Z,98789.53
2022-11-01T17:39:23.310Z,98783.13
2022-11-01T17:41:28.434Z,98794.44
2022-11-01T17:43:33.236Z,98793.84
2022-11-01T17:45:39.615Z,98804.41
2022-11-01T17:47:44.449Z,98803.75
2022-11-01T17:49:49.324Z,98798.50
2022-11-01T17:51:56.695Z,98798.50
2022-11-01T17:54:02.075Z,98799.19
2022-11-01T17:56:06.874Z,98799.06
2022-11-01T17:58:12.604Z,98800.03
2022-11-01T18:00:18.375Z,98803.31
2022-11-01T18:02:26.471Z,98806.72
2022-11-01T18:04:35.624Z,98800.47
2022-11-01T18:06:42.590Z,98809.69
2022-11-01T18:08:52.469Z,98807.69
2022-11-01T18:11:11.139Z,98797.19
2022-11-01T18:13:44.224Z,98807.53
2022-11-01T18:15:54.465Z,98809.97
2022-11-01T18:18:08.572Z,98812.28
2022-11-01T18:20:25.529Z,98814.72
2022-11-01T18:22:40.663Z,98809.41
2022-11-01T18:24:54.957Z,98804.78
2022-11-01T18:27:01.021Z,98801.84
2022-11-01T18:29:17.633Z,98802.44
2022-11-01T18:31:29.152Z,98803.28
2022-11-01T18:33:40.504Z,98795.50
2022-11-01T18:35:50.604Z,98797.44
2022-11-01T18:38:10.400Z,98795.88
2022-11-01T18:40:23.279Z,98797.03
2022-11-01T18:42:29.127Z,98797.22
2022-11-01T18:44:34.038Z,98796.28
2022-11-01T18:46:46.522Z,98803.41
2022-11-01T18:48:51.758Z,98802.72
2022-11-01T18:51:05.057Z,98805.25
2022-11-01T18:53:15.210Z,98799.16
2022-11-01T18:55:22.670Z,98803.63
2022-11-01T18:57:31.304Z,98810.66
2022-11-01T18:59:39.446Z,98810.81
2022-11-01T19:01:44.279Z,98803.06
2022-11-01T19:03:49.369Z,98811.09
2022-11-01T19:05:54.459Z,98809.69
2022-11-01T19:08:11.374Z,98812.03
2022-11-01T19:10:21.115Z,98822.84
2022-11-01T19:12:35.342Z,98817.53
2022-11-01T19:14:40.982Z,98818.22
2022-11-01T19:16:49.174Z,98820.00
2022-11-01T19:18:53.925Z,98811.13
2022-11-01T19:21:00.635Z,98821.53
2022-11-01T19:23:12.658Z,98816.28
2022-11-01T19:25:21.436Z,98823.97
2022-11-01T19:27:29.319Z,98822.91
2022-11-01T19:29:36.783Z,98820.28
2022-11-01T19:31:42.499Z,98811.72
2022-11-01T19:33:50.475Z,98811.97
2022-11-01T19:35:57.916Z,98810.50
2022-11-01T19:38:03.110Z,98824.16
2022-11-01T19:40:16.267Z,98823.13
2022-11-01T19:42:29.776Z,98816.56
2022-11-01T19:44:34.592Z,98816.88
2022-11-01T19:46:39.767Z,98822.34
2022-11-01T19:48:44.591Z,98822.81
2022-11-01T19:50:49.919Z,98822.16
2022-11-01T19:52:57.928Z,98829.19
2022-11-01T19:55:02.912Z,98831.88
2022-11-01T19:57:16.430Z,98834.59
2022-11-01T19:59:26.578Z,98837.25
2022-11-01T20:01:43.381Z,98842.75
2022-11-01T20:03:50.182Z,98842.94
2022-11-01T20:05:57.019Z,98843.06
2022-11-01T20:08:14.603Z,98844.31
2022-11-01T20:10:19.787Z,98843.53
2022-11-01T20:12:26.574Z,98850.91
2022-11-01T20:14:35.369Z,98852.97
2022-11-01T20:16:40.124Z,98855.72
2022-11-01T20:18:44.836Z,98855.03
2022-11-01T20:20:49.743Z,98861.31
2022-11-01T20:23:06.133Z,98867.47
2022-11-01T20:25:19.661Z,98861.41
2022-11-01T20:27:27.376Z,98865.84
2022-11-01T20:29:34.764Z,98871.94
2022-11-01T20:31:39.887Z,98872.78
2022-11-01T20:33:46.622Z,98869.47
2022-11-01T20:35:52.711Z,98872.84
2022-11-01T20:37:58.037Z,98872.56
2022-11-01T20:40:05.482Z,98879.16
2022-11-01T20:42:10.796Z,98886.72
2022-11-01T20:44:18.700Z,98881.38
2022-11-01T20:46:26.094Z,98880.00
2022-11-01T20:48:31.329Z,98880.84
2022-11-01T20:50:36.816Z,98885.09
2022-11-01T20:52:41.684Z,98886.00
2022-11-01T20:54:46.647Z,98884.38
2022-11-01T20:56:51.446Z,98886.22
2022-11-01T20:58:56.405Z,98884.44
2022-11-01T21:01:01.221Z,98880.06
2022-11-01T21:03:17.081Z,98878.22
2022-11-01T21:05:26.000Z,98875.69
2022-11-01T21:07:32.566Z,98875.84
2022-11-01T21:09:43.651Z,98869.88
2022-11-01T21:11:48.603Z,98873.69
2022-11-01T21:13:54.302Z,98879.13
2022-11-01T21:16:00.599Z,98882.00
2022-11-01T21:18:31.018Z,98888.25
2022-11-01T21:20:37.736Z,98875.41
2022-11-01T21:22:42.687Z,98886.00
2022-11-01T21:24:49.078Z,98882.81
2022-11-01T21:26:56.089Z,98890.94
2022-11-01T21:29:05.404Z,98884.19
2022-11-01T21:31:28.831Z,98887.94
2022-11-01T21:33:39.137Z,98890.81
2022-11-01T21:35:43.905Z,98888.34
2022-11-01T21:37:51.309Z,98892.03
2022-11-01T21:40:03.347Z,98892.22
2022-11-01T21:42:29.679Z,98886.41
2022-11-01T21:44:39.865Z,98890.00
2022-11-01T21:46:51.672Z,98892.75
2022-11-01T21:49:02.362Z,98906.00
2022-11-01T21:51:07.646Z,98897.38
2022-11-01T21:53:12.126Z,98904.69
2022-11-01T21:55:17.099Z,98898.66
2022-11-01T21:57:21.991Z,98902.25
2022-11-01T21:59:27.073Z,98897.94
2022-11-01T22:01:31.892Z,98904.16
2022-11-01T22:03:36.713Z,98901.63
2022-11-01T22:05:44.078Z,98902.50
2022-11-01T22:07:48.886Z,98901.75
2022-11-01T22:09:53.655Z,98902.59
2022-11-01T22:11:59.093Z,98905.13
2022-11-01T22:14:03.946Z,98908.59
2022-11-01T22:16:10.483Z,98906.06
2022-11-01T22:18:15.346Z,98909.50
2022-11-01T22:20:20.138Z,98905.25
2022-11-01T22:22:27.481Z,98903.63
2022-11-01T22:24:32.298Z,98901.94
2022-11-01T22:26:37.216Z,98901.13
2022-11-01T22:28:42.726Z,98896.03
2022-11-01T22:30:47.467Z,98893.41
2022-11-01T22:32:52.269Z,98897.88
2022-11-01T22:34:57.112Z,98894.47
2022-11-01T22:37:02.837Z,98889.28
2022-11-01T22:39:16.785Z,98885.91
2022-11-01T22:41:31.693Z,98889.50
2022-11-01T22:43:39.089Z,98900.09
2022-11-01T22:45:44.622Z,98888.03
2022-11-01T22:47:49.691Z,98892.53
2022-11-01T22:49:56.293Z,98890.22
2022-11-01T22:52:05.231Z,98891.16
2022-11-01T22:54:29.162Z,98886.00
2022-11-01T22:56:33.933Z,98895.56
2022-11-01T22:58:40.835Z,98904.34
2022-11-01T23:00:49.260Z,98904.38
2022-11-01T23:03:02.732Z,98910.53
2022-11-01T23:05:25.017Z,98906.16
2022-11-01T23:07:36.008Z,98905.31
2022-11-01T23:09:45.419Z,98904.47
2022-11-01T23:12:07.966Z,98904.50
2022-11-01T23:14:40.206Z,98911.47
2022-11-01T23:16:47.089Z,98915.72
2022-11-01T23:18:52.536Z,98913.03
2022-11-01T23:20:59.915Z,98914.50
2022-11-01T23:23:04.982Z,98909.91
2022-11-01T23:25:13.099Z,98915.88
2022-11-01T23:27:17.940Z,98915.88
2022-11-01T23:29:22.737Z,98926.34
2022-11-01T23:31:31.819Z,98923.72
2022-11-01T23:33:39.825Z,98918.38
2022-11-01T23:35:47.050Z,98916.59
2022-11-01T23:37:53.046Z,98914.88
2022-11-01T23:39:57.913Z,98917.44
2022-11-01T23:42:05.273Z,98911.28
2022-11-01T23:44:17.473Z,98916.53
2022-11-01T23:46:22.387Z,98914.78
2022-11-01T23:48:27.440Z,98920.00
2022-11-01T23:50:34.911Z,98917.31
2022-11-01T23:52:44.396Z,98920.84
2022-11-01T23:54:49.205Z,98919.22
2022-11-01T23:56:54.218Z,98927.22
2022-11-01T23:59:05.808Z,98921.16
